sensor_id;sensor_type;location;lat;lon;timestamp;P1;durP1;ratioP1;P2;durP2;ratioP2
1136;SDS011;557;48.466;7.950;2023-08-20T00:00:48;12.98;;;11.77;;
1136;SDS011;557;48.466;7.950;2023-08-20T00:03:36;12.40;;;11.20;;
1136;SDS011;557;48.466;7.950;2023-08-20T00:06:25;13.10;;;11.43;;
1136;SDS011;557;48.466;7.950;2023-08-20T00:09:13;13.13;;;11.90;;
1136;SDS011;557;48.466;7.950;2023-08-20T00:12:02;13.50;;;12.20;;
1136;SDS011;557;48.466;7.950;2023-08-20T00:14:51;13.40;;;12.10;;
1136;SDS011;557;48.466;7.950;2023-08-20T00:17:40;14.17;;;12.00;;
1136;SDS011;557;48.466;7.950;2023-08-20T00:20:28;13.70;;;12.33;;
1136;SDS011;557;48.466;7.950;2023-08-20T00:23:18;12.70;;;11.40;;
1136;SDS011;557;48.466;7.950;2023-08-20T00:26:05;12.73;;;11.43;;
1136;SDS011;557;48.466;7.950;2023-08-20T00:28:53;13.03;;;11.67;;
1136;SDS011;557;48.466;7.950;2023-08-20T00:31:40;13.33;;;12.07;;
1136;SDS011;557;48.466;7.950;2023-08-20T00:34:27;12.43;;;11.13;;
1136;SDS011;557;48.466;7.950;2023-08-20T00:37:15;13.10;;;11.20;;
1136;SDS011;557;48.466;7.950;2023-08-20T00:40:04;12.87;;;11.50;;
1136;SDS011;557;48.466;7.950;2023-08-20T00:42:52;11.30;;;9.97;;
1136;SDS011;557;48.466;7.950;2023-08-20T00:45:40;12.90;;;11.70;;
1136;SDS011;557;48.466;7.950;2023-08-20T00:48:28;11.93;;;10.83;;
1136;SDS011;557;48.466;7.950;2023-08-20T00:51:16;13.13;;;11.93;;
1136;SDS011;557;48.466;7.950;2023-08-20T00:54:03;12.30;;;11.10;;
1136;SDS011;557;48.466;7.950;2023-08-20T00:56:53;11.97;;;10.87;;
1136;SDS011;557;48.466;7.950;2023-08-20T00:59:40;12.30;;;11.00;;
1136;SDS011;557;48.466;7.950;2023-08-20T01:02:29;12.40;;;11.20;;
1136;SDS011;557;48.466;7.950;2023-08-20T01:05:17;12.60;;;11.50;;
1136;SDS011;557;48.466;7.950;2023-08-20T01:08:09;13.43;;;12.10;;
1136;SDS011;557;48.466;7.950;2023-08-20T01:11:06;14.17;;;12.77;;
1136;SDS011;557;48.466;7.950;2023-08-20T01:14:04;12.53;;;11.23;;
1136;SDS011;557;48.466;7.950;2023-08-20T01:17:01;12.97;;;11.43;;
1136;SDS011;557;48.466;7.950;2023-08-20T01:19:48;12.57;;;11.37;;
1136;SDS011;557;48.466;7.950;2023-08-20T01:22:50;12.90;;;11.67;;
1136;SDS011;557;48.466;7.950;2023-08-20T01:25:56;12.77;;;11.57;;
1136;SDS011;557;48.466;7.950;2023-08-20T01:32:30;14.17;;;12.77;;
1136;SDS011;557;48.466;7.950;2023-08-20T01:35:18;11.50;;;10.40;;
1136;SDS011;557;48.466;7.950;2023-08-20T01:38:06;12.57;;;11.33;;
1136;SDS011;557;48.466;7.950;2023-08-20T01:40:53;15.83;;;11.40;;
1136;SDS011;557;48.466;7.950;2023-08-20T01:43:41;11.83;;;10.73;;
1136;SDS011;557;48.466;7.950;2023-08-20T01:46:29;13.00;;;11.80;;
1136;SDS011;557;48.466;7.950;2023-08-20T01:49:17;12.37;;;11.27;;
1136;SDS011;557;48.466;7.950;2023-08-20T01:52:04;12.57;;;11.27;;
1136;SDS011;557;48.466;7.950;2023-08-20T01:54:52;12.50;;;10.80;;
1136;SDS011;557;48.466;7.950;2023-08-20T01:57:39;12.70;;;11.40;;
1136;SDS011;557;48.466;7.950;2023-08-20T02:00:26;12.43;;;11.10;;
1136;SDS011;557;48.466;7.950;2023-08-20T02:03:14;12.50;;;11.30;;
1136;SDS011;557;48.466;7.950;2023-08-20T02:06:02;12.07;;;10.80;;
1136;SDS011;557;48.466;7.950;2023-08-20T02:08:50;11.73;;;10.63;;
1136;SDS011;557;48.466;7.950;2023-08-20T02:11:37;11.93;;;10.73;;
1136;SDS011;557;48.466;7.950;2023-08-20T02:14:24;13.20;;;11.90;;
1136;SDS011;557;48.466;7.950;2023-08-20T02:17:12;13.03;;;11.73;;
1136;SDS011;557;48.466;7.950;2023-08-20T02:20:00;16.07;;;12.60;;
1136;SDS011;557;48.466;7.950;2023-08-20T02:22:49;13.50;;;12.10;;
1136;SDS011;557;48.466;7.950;2023-08-20T02:25:36;12.30;;;11.00;;
1136;SDS011;557;48.466;7.950;2023-08-20T02:28:24;13.67;;;12.30;;
1136;SDS011;557;48.466;7.950;2023-08-20T02:31:11;13.27;;;12.07;;
1136;SDS011;557;48.466;7.950;2023-08-20T02:33:58;14.80;;;13.23;;
1136;SDS011;557;48.466;7.950;2023-08-20T02:36:45;12.93;;;11.60;;
1136;SDS011;557;48.466;7.950;2023-08-20T02:39:35;13.90;;;12.40;;
1136;SDS011;557;48.466;7.950;2023-08-20T02:42:23;13.40;;;12.10;;
1136;SDS011;557;48.466;7.950;2023-08-20T02:45:10;13.13;;;11.83;;
1136;SDS011;557;48.466;7.950;2023-08-20T02:47:57;13.63;;;12.23;;
1136;SDS011;557;48.466;7.950;2023-08-20T02:50:44;14.43;;;13.03;;
1136;SDS011;557;48.466;7.950;2023-08-20T02:53:31;13.90;;;12.50;;
1136;SDS011;557;48.466;7.950;2023-08-20T02:56:20;13.17;;;11.93;;
1136;SDS011;557;48.466;7.950;2023-08-20T02:59:07;12.53;;;11.23;;
1136;SDS011;557;48.466;7.950;2023-08-20T03:01:54;13.40;;;11.23;;
1136;SDS011;557;48.466;7.950;2023-08-20T03:04:42;14.17;;;12.77;;
1136;SDS011;557;48.466;7.950;2023-08-20T03:07:29;12.60;;;11.40;;
1136;SDS011;557;48.466;7.950;2023-08-20T03:10:17;13.17;;;11.77;;
1136;SDS011;557;48.466;7.950;2023-08-20T03:13:06;13.80;;;11.97;;
1136;SDS011;557;48.466;7.950;2023-08-20T03:15:53;12.20;;;11.10;;
1136;SDS011;557;48.466;7.950;2023-08-20T03:18:40;11.17;;;10.17;;
1136;SDS011;557;48.466;7.950;2023-08-20T03:21:27;10.57;;;9.40;;
1136;SDS011;557;48.466;7.950;2023-08-20T03:24:14;12.23;;;10.30;;
1136;SDS011;557;48.466;7.950;2023-08-20T03:27:02;12.70;;;10.63;;
1136;SDS011;557;48.466;7.950;2023-08-20T03:29:51;12.60;;;11.33;;
1136;SDS011;557;48.466;7.950;2023-08-20T03:32:38;11.73;;;10.53;;
1136;SDS011;557;48.466;7.950;2023-08-20T03:35:25;11.50;;;10.40;;
1136;SDS011;557;48.466;7.950;2023-08-20T03:38:13;11.20;;;10.10;;
1136;SDS011;557;48.466;7.950;2023-08-20T03:41:00;11.77;;;10.67;;
1136;SDS011;557;48.466;7.950;2023-08-20T03:43:48;13.40;;;10.27;;
1136;SDS011;557;48.466;7.950;2023-08-20T03:46:37;12.57;;;11.30;;
1136;SDS011;557;48.466;7.950;2023-08-20T03:49:24;11.07;;;10.03;;
1136;SDS011;557;48.466;7.950;2023-08-20T03:52:11;11.77;;;10.57;;
1136;SDS011;557;48.466;7.950;2023-08-20T03:54:58;13.57;;;12.30;;
1136;SDS011;557;48.466;7.950;2023-08-20T03:57:45;11.60;;;10.40;;
1136;SDS011;557;48.466;7.950;2023-08-20T04:00:34;11.57;;;10.43;;
1136;SDS011;557;48.466;7.950;2023-08-20T04:03:22;11.70;;;10.50;;
1136;SDS011;557;48.466;7.950;2023-08-20T04:06:10;11.37;;;10.27;;
1136;SDS011;557;48.466;7.950;2023-08-20T04:08:57;12.93;;;11.73;;
1136;SDS011;557;48.466;7.950;2023-08-20T04:11:44;12.60;;;11.10;;
1136;SDS011;557;48.466;7.950;2023-08-20T04:14:31;14.67;;;11.77;;
1136;SDS011;557;48.466;7.950;2023-08-20T04:17:18;13.03;;;11.77;;
1136;SDS011;557;48.466;7.950;2023-08-20T04:20:07;12.13;;;11.00;;
1136;SDS011;557;48.466;7.950;2023-08-20T04:22:56;12.53;;;11.40;;
1136;SDS011;557;48.466;7.950;2023-08-20T04:25:43;13.40;;;12.10;;
1136;SDS011;557;48.466;7.950;2023-08-20T04:28:30;11.33;;;10.20;;
1136;SDS011;557;48.466;7.950;2023-08-20T04:31:17;12.30;;;11.10;;
1136;SDS011;557;48.466;7.950;2023-08-20T04:34:04;13.37;;;12.07;;
1136;SDS011;557;48.466;7.950;2023-08-20T04:36:53;12.60;;;11.07;;
1136;SDS011;557;48.466;7.950;2023-08-20T04:39:40;14.60;;;12.57;;
1136;SDS011;557;48.466;7.950;2023-08-20T04:42:27;12.13;;;11.00;;
1136;SDS011;557;48.466;7.950;2023-08-20T04:45:15;11.73;;;10.63;;
1136;SDS011;557;48.466;7.950;2023-08-20T04:48:03;13.07;;;11.87;;
1136;SDS011;557;48.466;7.950;2023-08-20T04:50:51;10.90;;;9.90;;
1136;SDS011;557;48.466;7.950;2023-08-20T04:53:39;11.97;;;10.77;;
1136;SDS011;557;48.466;7.950;2023-08-20T04:56:26;11.50;;;10.40;;
1136;SDS011;557;48.466;7.950;2023-08-20T04:59:13;11.23;;;10.13;;
1136;SDS011;557;48.466;7.950;2023-08-20T05:02:01;12.77;;;11.57;;
1136;SDS011;557;48.466;7.950;2023-08-20T05:04:48;12.87;;;11.60;;
1136;SDS011;557;48.466;7.950;2023-08-20T05:07:35;11.70;;;10.60;;
1136;SDS011;557;48.466;7.950;2023-08-20T05:10:24;12.90;;;11.60;;
1136;SDS011;557;48.466;7.950;2023-08-20T05:13:11;12.83;;;11.73;;
1136;SDS011;557;48.466;7.950;2023-08-20T05:15:59;12.23;;;11.03;;
1136;SDS011;557;48.466;7.950;2023-08-20T05:18:46;11.60;;;10.50;;
1136;SDS011;557;48.466;7.950;2023-08-20T05:21:33;13.10;;;11.80;;
1136;SDS011;557;48.466;7.950;2023-08-20T05:24:20;12.93;;;11.67;;
1136;SDS011;557;48.466;7.950;2023-08-20T05:27:11;13.20;;;11.60;;
1136;SDS011;557;48.466;7.950;2023-08-20T05:30:00;17.80;;;12.10;;
1136;SDS011;557;48.466;7.950;2023-08-20T05:32:47;12.97;;;11.57;;
1136;SDS011;557;48.466;7.950;2023-08-20T05:35:34;12.10;;;10.80;;
1136;SDS011;557;48.466;7.950;2023-08-20T05:38:21;11.20;;;10.20;;
1136;SDS011;557;48.466;7.950;2023-08-20T05:41:08;12.60;;;11.40;;
1136;SDS011;557;48.466;7.950;2023-08-20T05:43:57;12.70;;;11.23;;
1136;SDS011;557;48.466;7.950;2023-08-20T05:46:44;11.83;;;10.60;;
1136;SDS011;557;48.466;7.950;2023-08-20T05:49:32;12.60;;;11.50;;
1136;SDS011;557;48.466;7.950;2023-08-20T05:52:19;13.00;;;11.70;;
1136;SDS011;557;48.466;7.950;2023-08-20T05:55:06;12.37;;;11.07;;
1136;SDS011;557;48.466;7.950;2023-08-20T05:57:54;13.10;;;11.70;;
1136;SDS011;557;48.466;7.950;2023-08-20T06:00:42;12.17;;;11.03;;
1136;SDS011;557;48.466;7.950;2023-08-20T06:03:30;12.60;;;11.40;;
1136;SDS011;557;48.466;7.950;2023-08-20T06:06:17;12.23;;;11.03;;
1136;SDS011;557;48.466;7.950;2023-08-20T06:09:04;14.43;;;12.30;;
1136;SDS011;557;48.466;7.950;2023-08-20T06:11:51;15.03;;;13.50;;
1136;SDS011;557;48.466;7.950;2023-08-20T06:14:38;14.83;;;13.33;;
1136;SDS011;557;48.466;7.950;2023-08-20T06:17:27;15.07;;;12.85;;
1136;SDS011;557;48.466;7.950;2023-08-20T06:20:14;14.45;;;13.05;;
1136;SDS011;557;48.466;7.950;2023-08-20T06:23:04;13.73;;;12.43;;
1136;SDS011;557;48.466;7.950;2023-08-20T06:25:51;17.40;;;14.00;;
1136;SDS011;557;48.466;7.950;2023-08-20T06:28:38;15.97;;;14.33;;
1136;SDS011;557;48.466;7.950;2023-08-20T06:31:25;16.10;;;14.60;;
1136;SDS011;557;48.466;7.950;2023-08-20T06:34:15;14.13;;;12.80;;
1136;SDS011;557;48.466;7.950;2023-08-20T06:37:03;15.30;;;13.70;;
1136;SDS011;557;48.466;7.950;2023-08-20T06:39:50;13.90;;;12.50;;
1136;SDS011;557;48.466;7.950;2023-08-20T06:42:37;15.80;;;14.30;;
1136;SDS011;557;48.466;7.950;2023-08-20T06:45:24;14.73;;;13.33;;
1136;SDS011;557;48.466;7.950;2023-08-20T06:48:12;15.47;;;13.97;;
1136;SDS011;557;48.466;7.950;2023-08-20T06:51:00;14.27;;;12.90;;
1136;SDS011;557;48.466;7.950;2023-08-20T06:53:54;13.00;;;11.80;;
1136;SDS011;557;48.466;7.950;2023-08-20T06:56:42;15.10;;;12.97;;
1136;SDS011;557;48.466;7.950;2023-08-20T06:59:29;14.00;;;12.60;;
1136;SDS011;557;48.466;7.950;2023-08-20T07:02:16;15.13;;;13.60;;
1136;SDS011;557;48.466;7.950;2023-08-20T07:05:04;14.80;;;13.40;;
1136;SDS011;557;48.466;7.950;2023-08-20T07:07:55;14.20;;;12.80;;
1136;SDS011;557;48.466;7.950;2023-08-20T07:10:43;15.45;;;13.85;;
1136;SDS011;557;48.466;7.950;2023-08-20T07:13:30;15.73;;;14.23;;
1136;SDS011;557;48.466;7.950;2023-08-20T07:16:17;15.05;;;13.52;;
1136;SDS011;557;48.466;7.950;2023-08-20T07:19:05;15.00;;;13.63;;
1136;SDS011;557;48.466;7.950;2023-08-20T07:21:52;14.27;;;13.07;;
1136;SDS011;557;48.466;7.950;2023-08-20T07:24:41;14.07;;;12.70;;
1136;SDS011;557;48.466;7.950;2023-08-20T07:27:28;15.55;;;14.20;;
1136;SDS011;557;48.466;7.950;2023-08-20T07:30:15;15.48;;;14.00;;
1136;SDS011;557;48.466;7.950;2023-08-20T07:33:03;14.90;;;13.50;;
1136;SDS011;557;48.466;7.950;2023-08-20T07:35:52;15.60;;;14.10;;
1136;SDS011;557;48.466;7.950;2023-08-20T07:38:39;15.48;;;14.10;;
1136;SDS011;557;48.466;7.950;2023-08-20T07:41:29;16.52;;;15.02;;
1136;SDS011;557;48.466;7.950;2023-08-20T07:44:16;17.38;;;15.48;;
1136;SDS011;557;48.466;7.950;2023-08-20T07:47:04;17.10;;;15.55;;
1136;SDS011;557;48.466;7.950;2023-08-20T07:49:51;16.10;;;14.48;;
1136;SDS011;557;48.466;7.950;2023-08-20T07:52:38;17.85;;;16.13;;
1136;SDS011;557;48.466;7.950;2023-08-20T07:55:26;18.63;;;16.92;;
1136;SDS011;557;48.466;7.950;2023-08-20T07:58:14;17.95;;;16.15;;
1136;SDS011;557;48.466;7.950;2023-08-20T08:01:02;17.50;;;15.80;;
1136;SDS011;557;48.466;7.950;2023-08-20T08:03:49;17.92;;;16.13;;
1136;SDS011;557;48.466;7.950;2023-08-20T08:06:36;17.42;;;15.82;;
1136;SDS011;557;48.466;7.950;2023-08-20T08:09:25;18.50;;;16.73;;
1136;SDS011;557;48.466;7.950;2023-08-20T08:12:14;16.20;;;14.70;;
1136;SDS011;557;48.466;7.950;2023-08-20T08:15:02;19.75;;;17.83;;
1136;SDS011;557;48.466;7.950;2023-08-20T08:17:50;16.83;;;15.32;;
1136;SDS011;557;48.466;7.950;2023-08-20T08:20:37;15.90;;;14.40;;
1136;SDS011;557;48.466;7.950;2023-08-20T08:23:25;17.48;;;15.88;;
1136;SDS011;557;48.466;7.950;2023-08-20T08:26:12;18.50;;;16.80;;
1136;SDS011;557;48.466;7.950;2023-08-20T08:29:00;18.38;;;16.55;;
1136;SDS011;557;48.466;7.950;2023-08-20T08:31:48;15.27;;;13.77;;
1136;SDS011;557;48.466;7.950;2023-08-20T08:34:35;17.60;;;16.05;;
1136;SDS011;557;48.466;7.950;2023-08-20T08:37:23;18.77;;;16.88;;
1136;SDS011;557;48.466;7.950;2023-08-20T08:40:10;17.80;;;16.15;;
1136;SDS011;557;48.466;7.950;2023-08-20T08:42:58;16.88;;;15.38;;
1136;SDS011;557;48.466;7.950;2023-08-20T08:45:47;18.48;;;16.85;;
1136;SDS011;557;48.466;7.950;2023-08-20T08:48:36;17.33;;;15.77;;
1136;SDS011;557;48.466;7.950;2023-08-20T08:51:26;16.40;;;14.93;;
1136;SDS011;557;48.466;7.950;2023-08-20T08:54:14;16.48;;;14.88;;
1136;SDS011;557;48.466;7.950;2023-08-20T08:57:02;17.92;;;16.13;;
1136;SDS011;557;48.466;7.950;2023-08-20T08:59:50;14.80;;;13.50;;
1136;SDS011;557;48.466;7.950;2023-08-20T09:02:38;15.98;;;14.35;;
1136;SDS011;557;48.466;7.950;2023-08-20T09:05:26;13.82;;;12.73;;
1136;SDS011;557;48.466;7.950;2023-08-20T09:08:27;15.07;;;13.85;;
1136;SDS011;557;48.466;7.950;2023-08-20T09:11:15;17.27;;;15.77;;
1136;SDS011;557;48.466;7.950;2023-08-20T09:14:02;17.15;;;15.70;;
1136;SDS011;557;48.466;7.950;2023-08-20T09:16:56;16.02;;;14.73;;
1136;SDS011;557;48.466;7.950;2023-08-20T09:19:44;17.15;;;15.60;;
1136;SDS011;557;48.466;7.950;2023-08-20T09:22:33;17.75;;;16.27;;
1136;SDS011;557;48.466;7.950;2023-08-20T09:25:22;17.95;;;16.35;;
1136;SDS011;557;48.466;7.950;2023-08-20T09:28:09;16.45;;;14.80;;
1136;SDS011;557;48.466;7.950;2023-08-20T09:30:57;16.83;;;15.38;;
1136;SDS011;557;48.466;7.950;2023-08-20T09:33:49;17.00;;;15.60;;
1136;SDS011;557;48.466;7.950;2023-08-20T09:36:37;17.00;;;15.55;;
1136;SDS011;557;48.466;7.950;2023-08-20T09:39:26;17.30;;;15.80;;
1136;SDS011;557;48.466;7.950;2023-08-20T09:42:13;16.13;;;14.82;;
1136;SDS011;557;48.466;7.950;2023-08-20T09:45:02;17.08;;;15.77;;
1136;SDS011;557;48.466;7.950;2023-08-20T09:47:51;17.25;;;15.95;;
1136;SDS011;557;48.466;7.950;2023-08-20T09:50:42;19.58;;;17.83;;
1136;SDS011;557;48.466;7.950;2023-08-20T09:53:33;18.45;;;17.05;;
1136;SDS011;557;48.466;7.950;2023-08-20T09:56:26;18.67;;;17.25;;
1136;SDS011;557;48.466;7.950;2023-08-20T09:59:15;18.40;;;17.08;;
1136;SDS011;557;48.466;7.950;2023-08-20T10:02:03;18.02;;;16.67;;
1136;SDS011;557;48.466;7.950;2023-08-20T10:04:51;19.42;;;17.88;;
1136;SDS011;557;48.466;7.950;2023-08-20T10:07:39;17.92;;;16.73;;
1136;SDS011;557;48.466;7.950;2023-08-20T10:10:26;18.25;;;16.90;;
1136;SDS011;557;48.466;7.950;2023-08-20T10:13:15;18.90;;;17.58;;
1136;SDS011;557;48.466;7.950;2023-08-20T10:16:03;20.55;;;18.95;;
1136;SDS011;557;48.466;7.950;2023-08-20T10:18:51;19.38;;;17.95;;
1136;SDS011;557;48.466;7.950;2023-08-20T10:21:46;18.50;;;17.13;;
1136;SDS011;557;48.466;7.950;2023-08-20T10:24:41;18.77;;;17.55;;
1136;SDS011;557;48.466;7.950;2023-08-20T10:27:34;18.02;;;16.73;;
1136;SDS011;557;48.466;7.950;2023-08-20T10:30:24;18.13;;;16.77;;
1136;SDS011;557;48.466;7.950;2023-08-20T10:33:12;17.98;;;16.73;;
1136;SDS011;557;48.466;7.950;2023-08-20T10:36:07;18.50;;;17.13;;
1136;SDS011;557;48.466;7.950;2023-08-20T10:38:56;17.73;;;16.50;;
1136;SDS011;557;48.466;7.950;2023-08-20T10:41:49;18.67;;;17.42;;
1136;SDS011;557;48.466;7.950;2023-08-20T10:44:59;19.38;;;18.08;;
1136;SDS011;557;48.466;7.950;2023-08-20T10:47:50;17.48;;;16.27;;
1136;SDS011;557;48.466;7.950;2023-08-20T10:50:37;18.83;;;17.52;;
1136;SDS011;557;48.466;7.950;2023-08-20T10:53:26;18.02;;;16.83;;
1136;SDS011;557;48.466;7.950;2023-08-20T10:56:14;18.45;;;17.13;;
1136;SDS011;557;48.466;7.950;2023-08-20T10:59:05;19.83;;;18.52;;
1136;SDS011;557;48.466;7.950;2023-08-20T11:01:54;20.13;;;18.70;;
1136;SDS011;557;48.466;7.950;2023-08-20T11:04:43;20.88;;;19.00;;
1136;SDS011;557;48.466;7.950;2023-08-20T11:07:31;19.63;;;18.23;;
1136;SDS011;557;48.466;7.950;2023-08-20T11:10:20;19.75;;;18.55;;
1136;SDS011;557;48.466;7.950;2023-08-20T11:13:08;21.60;;;20.20;;
1136;SDS011;557;48.466;7.950;2023-08-20T11:15:55;20.23;;;18.83;;
1136;SDS011;557;48.466;7.950;2023-08-20T11:18:42;20.63;;;19.15;;
1136;SDS011;557;48.466;7.950;2023-08-20T11:21:31;20.55;;;19.25;;
1136;SDS011;557;48.466;7.950;2023-08-20T11:24:19;20.27;;;18.92;;
1136;SDS011;557;48.466;7.950;2023-08-20T11:27:06;22.02;;;20.63;;
1136;SDS011;557;48.466;7.950;2023-08-20T11:29:54;19.85;;;18.75;;
1136;SDS011;557;48.466;7.950;2023-08-20T11:32:41;21.60;;;20.30;;
1136;SDS011;557;48.466;7.950;2023-08-20T11:35:30;21.90;;;20.58;;
1136;SDS011;557;48.466;7.950;2023-08-20T11:38:21;21.88;;;20.58;;
1136;SDS011;557;48.466;7.950;2023-08-20T11:41:11;21.85;;;20.55;;
1136;SDS011;557;48.466;7.950;2023-08-20T11:43:59;22.73;;;20.92;;
1136;SDS011;557;48.466;7.950;2023-08-20T11:46:46;21.38;;;20.08;;
1136;SDS011;557;48.466;7.950;2023-08-20T11:49:33;22.30;;;20.95;;
1136;SDS011;557;48.466;7.950;2023-08-20T11:52:20;22.60;;;21.20;;
1136;SDS011;557;48.466;7.950;2023-08-20T11:55:09;22.17;;;20.58;;
1136;SDS011;557;48.466;7.950;2023-08-20T11:57:56;21.23;;;19.98;;
1136;SDS011;557;48.466;7.950;2023-08-20T12:00:47;21.13;;;19.83;;
1136;SDS011;557;48.466;7.950;2023-08-20T12:03:36;21.67;;;20.38;;
1136;SDS011;557;48.466;7.950;2023-08-20T12:06:24;22.38;;;20.95;;
1136;SDS011;557;48.466;7.950;2023-08-20T12:09:19;22.23;;;20.92;;
1136;SDS011;557;48.466;7.950;2023-08-20T12:12:08;21.95;;;20.65;;
1136;SDS011;557;48.466;7.950;2023-08-20T12:14:58;21.42;;;20.13;;
1136;SDS011;557;48.466;7.950;2023-08-20T12:17:56;21.55;;;20.25;;
1136;SDS011;557;48.466;7.950;2023-08-20T12:20:44;23.08;;;21.67;;
1136;SDS011;557;48.466;7.950;2023-08-20T12:23:32;21.65;;;20.35;;
1136;SDS011;557;48.466;7.950;2023-08-20T12:26:19;21.65;;;20.35;;
1136;SDS011;557;48.466;7.950;2023-08-20T12:29:08;23.25;;;21.75;;
1136;SDS011;557;48.466;7.950;2023-08-20T12:31:55;22.23;;;20.92;;
1136;SDS011;557;48.466;7.950;2023-08-20T12:34:43;22.55;;;21.02;;
1136;SDS011;557;48.466;7.950;2023-08-20T12:37:30;21.27;;;19.98;;
1136;SDS011;557;48.466;7.950;2023-08-20T12:40:18;21.80;;;20.48;;
1136;SDS011;557;48.466;7.950;2023-08-20T12:43:05;22.95;;;21.45;;
1136;SDS011;557;48.466;7.950;2023-08-20T12:45:54;22.77;;;21.42;;
1136;SDS011;557;48.466;7.950;2023-08-20T12:48:41;22.33;;;20.95;;
1136;SDS011;557;48.466;7.950;2023-08-20T12:51:28;24.15;;;22.30;;
1136;SDS011;557;48.466;7.950;2023-08-20T12:54:15;22.83;;;21.50;;
1136;SDS011;557;48.466;7.950;2023-08-20T12:57:03;23.58;;;22.08;;
1136;SDS011;557;48.466;7.950;2023-08-20T12:59:51;23.40;;;22.10;;
1136;SDS011;557;48.466;7.950;2023-08-20T13:02:40;23.35;;;21.95;;
1136;SDS011;557;48.466;7.950;2023-08-20T13:05:27;24.23;;;22.70;;
1136;SDS011;557;48.466;7.950;2023-08-20T13:08:15;23.05;;;21.65;;
1136;SDS011;557;48.466;7.950;2023-08-20T13:11:03;23.00;;;21.58;;
1136;SDS011;557;48.466;7.950;2023-08-20T13:13:53;23.13;;;21.67;;
1136;SDS011;557;48.466;7.950;2023-08-20T13:16:41;24.10;;;22.15;;
1136;SDS011;557;48.466;7.950;2023-08-20T13:19:30;23.67;;;22.23;;
1136;SDS011;557;48.466;7.950;2023-08-20T13:22:18;22.92;;;21.52;;
1136;SDS011;557;48.466;7.950;2023-08-20T13:25:06;24.17;;;22.58;;
1136;SDS011;557;48.466;7.950;2023-08-20T13:27:54;23.23;;;21.83;;
1136;SDS011;557;48.466;7.950;2023-08-20T13:30:41;23.02;;;21.73;;
1136;SDS011;557;48.466;7.950;2023-08-20T13:33:28;22.52;;;21.23;;
1136;SDS011;557;48.466;7.950;2023-08-20T13:36:17;22.42;;;21.13;;
1136;SDS011;557;48.466;7.950;2023-08-20T13:39:05;22.55;;;21.15;;
1136;SDS011;557;48.466;7.950;2023-08-20T13:41:52;23.27;;;21.88;;
1136;SDS011;557;48.466;7.950;2023-08-20T13:44:39;23.77;;;22.15;;
1136;SDS011;557;48.466;7.950;2023-08-20T13:47:26;23.25;;;21.85;;
1136;SDS011;557;48.466;7.950;2023-08-20T13:50:14;22.67;;;21.38;;
1136;SDS011;557;48.466;7.950;2023-08-20T13:53:03;21.63;;;20.13;;
1136;SDS011;557;48.466;7.950;2023-08-20T13:55:50;23.50;;;22.20;;
1136;SDS011;557;48.466;7.950;2023-08-20T13:58:38;22.23;;;20.92;;
1136;SDS011;557;48.466;7.950;2023-08-20T14:01:25;22.90;;;21.50;;
1136;SDS011;557;48.466;7.950;2023-08-20T14:04:13;22.02;;;20.73;;
1136;SDS011;557;48.466;7.950;2023-08-20T14:07:00;22.25;;;20.95;;
1136;SDS011;557;48.466;7.950;2023-08-20T14:09:49;23.20;;;21.90;;
1136;SDS011;557;48.466;7.950;2023-08-20T14:12:36;22.55;;;21.15;;
1136;SDS011;557;48.466;7.950;2023-08-20T14:15:23;21.88;;;20.58;;
1136;SDS011;557;48.466;7.950;2023-08-20T14:18:11;22.45;;;21.15;;
1136;SDS011;557;48.466;7.950;2023-08-20T14:20:58;23.15;;;21.60;;
1136;SDS011;557;48.466;7.950;2023-08-20T14:23:45;22.70;;;21.30;;
1136;SDS011;557;48.466;7.950;2023-08-20T14:26:34;22.27;;;20.92;;
1136;SDS011;557;48.466;7.950;2023-08-20T14:29:21;22.45;;;21.05;;
1136;SDS011;557;48.466;7.950;2023-08-20T14:32:09;22.48;;;21.17;;
1136;SDS011;557;48.466;7.950;2023-08-20T14:34:56;21.75;;;20.45;;
1136;SDS011;557;48.466;7.950;2023-08-20T14:37:43;20.75;;;19.55;;
1136;SDS011;557;48.466;7.950;2023-08-20T14:40:30;22.88;;;21.48;;
1136;SDS011;557;48.466;7.950;2023-08-20T14:43:21;21.30;;;19.98;;
1136;SDS011;557;48.466;7.950;2023-08-20T14:46:08;22.40;;;21.05;;
1136;SDS011;557;48.466;7.950;2023-08-20T14:48:55;21.65;;;20.35;;
1136;SDS011;557;48.466;7.950;2023-08-20T14:51:42;22.73;;;21.33;;
1136;SDS011;557;48.466;7.950;2023-08-20T14:54:29;22.75;;;21.35;;
1136;SDS011;557;48.466;7.950;2023-08-20T14:57:17;21.33;;;20.13;;
1136;SDS011;557;48.466;7.950;2023-08-20T15:00:06;23.05;;;21.65;;
1136;SDS011;557;48.466;7.950;2023-08-20T15:02:59;21.70;;;20.40;;
1136;SDS011;557;48.466;7.950;2023-08-20T15:05:46;22.40;;;21.10;;
1136;SDS011;557;48.466;7.950;2023-08-20T15:08:34;22.05;;;20.75;;
1136;SDS011;557;48.466;7.950;2023-08-20T15:11:21;22.92;;;21.50;;
1136;SDS011;557;48.466;7.950;2023-08-20T15:14:08;22.08;;;20.67;;
1136;SDS011;557;48.466;7.950;2023-08-20T15:16:57;21.50;;;20.13;;
1136;SDS011;557;48.466;7.950;2023-08-20T15:19:44;21.85;;;20.50;;
1136;SDS011;557;48.466;7.950;2023-08-20T15:22:31;22.73;;;21.10;;
1136;SDS011;557;48.466;7.950;2023-08-20T15:25:19;20.95;;;19.73;;
1136;SDS011;557;48.466;7.950;2023-08-20T15:28:06;21.63;;;20.33;;
1136;SDS011;557;48.466;7.950;2023-08-20T15:30:53;21.08;;;19.70;;
1136;SDS011;557;48.466;7.950;2023-08-20T15:33:42;20.88;;;19.70;;
1136;SDS011;557;48.466;7.950;2023-08-20T15:36:29;21.08;;;19.88;;
1136;SDS011;557;48.466;7.950;2023-08-20T15:39:16;21.42;;;20.13;;
1136;SDS011;557;48.466;7.950;2023-08-20T15:42:04;21.30;;;20.02;;
1136;SDS011;557;48.466;7.950;2023-08-20T15:44:52;20.67;;;19.58;;
1136;SDS011;557;48.466;7.950;2023-08-20T15:47:39;21.95;;;20.52;;
1136;SDS011;557;48.466;7.950;2023-08-20T15:50:28;21.38;;;20.08;;
1136;SDS011;557;48.466;7.950;2023-08-20T15:53:15;20.55;;;19.25;;
1136;SDS011;557;48.466;7.950;2023-08-20T15:56:03;20.58;;;19.38;;
1136;SDS011;557;48.466;7.950;2023-08-20T15:58:50;21.05;;;19.65;;
1136;SDS011;557;48.466;7.950;2023-08-20T16:01:38;20.63;;;19.40;;
1136;SDS011;557;48.466;7.950;2023-08-20T16:04:26;20.75;;;19.65;;
1136;SDS011;557;48.466;7.950;2023-08-20T16:07:15;20.85;;;19.65;;
1136;SDS011;557;48.466;7.950;2023-08-20T16:10:02;20.85;;;19.55;;
1136;SDS011;557;48.466;7.950;2023-08-20T16:12:50;20.20;;;19.10;;
1136;SDS011;557;48.466;7.950;2023-08-20T16:15:38;21.23;;;20.02;;
1136;SDS011;557;48.466;7.950;2023-08-20T16:18:25;20.10;;;18.90;;
1136;SDS011;557;48.466;7.950;2023-08-20T16:21:13;20.05;;;18.95;;
1136;SDS011;557;48.466;7.950;2023-08-20T16:24:02;19.27;;;18.27;;
1136;SDS011;557;48.466;7.950;2023-08-20T16:26:50;20.55;;;19.42;;
1136;SDS011;557;48.466;7.950;2023-08-20T16:29:38;20.75;;;19.23;;
1136;SDS011;557;48.466;7.950;2023-08-20T16:32:25;20.25;;;19.15;;
1136;SDS011;557;48.466;7.950;2023-08-20T16:35:13;20.13;;;19.02;;
1136;SDS011;557;48.466;7.950;2023-08-20T16:38:00;20.55;;;19.45;;
1136;SDS011;557;48.466;7.950;2023-08-20T16:40:49;20.17;;;19.15;;
1136;SDS011;557;48.466;7.950;2023-08-20T16:43:36;20.15;;;18.95;;
1136;SDS011;557;48.466;7.950;2023-08-20T16:46:24;20.13;;;19.13;;
1136;SDS011;557;48.466;7.950;2023-08-20T16:49:11;20.90;;;19.80;;
1136;SDS011;557;48.466;7.950;2023-08-20T16:51:58;20.80;;;19.63;;
1136;SDS011;557;48.466;7.950;2023-08-20T16:54:46;20.25;;;19.15;;
1136;SDS011;557;48.466;7.950;2023-08-20T16:57:35;20.77;;;19.67;;
1136;SDS011;557;48.466;7.950;2023-08-20T17:00:23;21.73;;;20.52;;
1136;SDS011;557;48.466;7.950;2023-08-20T17:03:10;21.92;;;20.73;;
1136;SDS011;557;48.466;7.950;2023-08-20T17:05:59;21.30;;;20.10;;
1136;SDS011;557;48.466;7.950;2023-08-20T17:08:47;21.25;;;20.10;;
1136;SDS011;557;48.466;7.950;2023-08-20T17:11:35;21.60;;;20.40;;
1136;SDS011;557;48.466;7.950;2023-08-20T17:14:23;19.90;;;18.90;;